CSH9101 ZSHC-ZSHC
Flight info
| Callsign | CSH9101 |
|---|---|
| Flight time | 0h 16m |
| Altitude | 36100 |
| Route | NIVK9D/06 NIVIK W135 DOGVI A470 OF/K0865S1160 A470 DPX A593 DALIM W157 BEKDO/K0856S1130 W157 AVBOX AVBOX5L |
| Aircraft | B738/M-SDE2E3FGHIRWXY/LB1 |
Departure
| Time | 2026-04-30 14:12 |
|---|---|
| Airport | Hangzhou Xiaoshan International Airport (ZSHC) |
Arrival
| Time | 2026-04-30 14:28 |
|---|---|
| Airport | Hangzhou Xiaoshan International Airport (ZSHC) |
| Time | Latitude | Longitude | Altitude | Speed | Heading |
|---|---|---|---|---|---|
| 2026-04-30 14:09 | 30.72654 | 120.55682 | 17799 ft | 361 kts | 124° |
| 2026-04-30 14:10 | 30.71635 | 120.57171 | 17753 ft | 352 kts | 140° |
| 2026-04-30 14:10 | 30.69672 | 120.58712 | 17598 ft | 332 kts | 165° |
| 2026-04-30 14:10 | 30.67523 | 120.59544 | 17338 ft | 323 kts | 172° |
| 2026-04-30 14:10 | 30.64652 | 120.60438 | 16877 ft | 322 kts | 173° |
| 2026-04-30 14:11 | 30.63188 | 120.60874 | 16657 ft | 321 kts | 173° |
| 2026-04-30 14:11 | 30.60294 | 120.61716 | 16271 ft | 318 kts | 175° |
| 2026-04-30 14:11 | 30.58869 | 120.61910 | 16053 ft | 306 kts | 192° |
| 2026-04-30 14:11 | 30.56363 | 120.60989 | 15683 ft | 272 kts | 226° |
| 2026-04-30 14:12 | 30.55388 | 120.60075 | 15501 ft | 264 kts | 231° |
| 2026-04-30 14:12 | 30.53597 | 120.58123 | 14834 ft | 272 kts | 233° |
| 2026-04-30 14:12 | 30.52678 | 120.57075 | 14543 ft | 276 kts | 233° |
| 2026-04-30 14:12 | 30.51313 | 120.55501 | 14212 ft | 276 kts | 233° |
| 2026-04-30 14:13 | 30.49957 | 120.53929 | 13919 ft | 275 kts | 233° |
| 2026-04-30 14:13 | 30.48612 | 120.52361 | 13599 ft | 274 kts | 233° |
| 2026-04-30 14:13 | 30.47270 | 120.50789 | 13263 ft | 273 kts | 233° |
| 2026-04-30 14:13 | 30.45937 | 120.49222 | 12954 ft | 272 kts | 233° |
| 2026-04-30 14:14 | 30.44615 | 120.47661 | 12638 ft | 271 kts | 233° |
| 2026-04-30 14:14 | 30.43314 | 120.46120 | 12324 ft | 270 kts | 233° |
| 2026-04-30 14:14 | 30.42003 | 120.44561 | 12012 ft | 270 kts | 233° |
| 2026-04-30 14:14 | 30.40699 | 120.43002 | 11703 ft | 269 kts | 233° |
| 2026-04-30 14:15 | 30.39403 | 120.41445 | 11404 ft | 268 kts | 233° |
| 2026-04-30 14:15 | 30.38114 | 120.39888 | 11098 ft | 267 kts | 233° |
| 2026-04-30 14:15 | 30.36837 | 120.38327 | 10779 ft | 267 kts | 233° |
| 2026-04-30 14:15 | 30.35565 | 120.36759 | 10481 ft | 267 kts | 233° |
| 2026-04-30 14:16 | 30.34298 | 120.35186 | 10191 ft | 266 kts | 233° |
| 2026-04-30 14:16 | 30.33040 | 120.33617 | 9900 ft | 266 kts | 233° |
| 2026-04-30 14:16 | 30.31786 | 120.32045 | 9585 ft | 265 kts | 233° |
| 2026-04-30 14:16 | 30.30544 | 120.30479 | 9277 ft | 264 kts | 233° |
| 2026-04-30 14:17 | 30.29302 | 120.28906 | 8965 ft | 264 kts | 233° |
| 2026-04-30 14:17 | 30.28068 | 120.27336 | 8660 ft | 264 kts | 233° |
| 2026-04-30 14:17 | 30.26840 | 120.25764 | 8362 ft | 263 kts | 233° |
| 2026-04-30 14:17 | 30.25619 | 120.24192 | 8062 ft | 263 kts | 233° |
| 2026-04-30 14:18 | 30.24402 | 120.22617 | 7782 ft | 262 kts | 233° |
| 2026-04-30 14:18 | 30.23194 | 120.21044 | 7493 ft | 261 kts | 233° |
| 2026-04-30 14:18 | 30.20806 | 120.17885 | 6926 ft | 259 kts | 238° |
| 2026-04-30 14:19 | 30.19371 | 120.14170 | 6343 ft | 252 kts | 254° |
| 2026-04-30 14:19 | 30.18781 | 120.12368 | 6105 ft | 250 kts | 253° |
| 2026-04-30 14:19 | 30.18175 | 120.10510 | 5721 ft | 246 kts | 253° |
| 2026-04-30 14:20 | 30.17534 | 120.08640 | 5265 ft | 248 kts | 244° |
| 2026-04-30 14:20 | 30.16362 | 120.07246 | 5043 ft | 245 kts | 211° |
| 2026-04-30 14:20 | 30.13244 | 120.07316 | 4634 ft | 226 kts | 145° |
| 2026-04-30 14:21 | 30.12306 | 120.08651 | 4410 ft | 212 kts | 108° |
| 2026-04-30 14:21 | 30.12036 | 120.10257 | 4239 ft | 201 kts | 95° |
| 2026-04-30 14:21 | 30.11772 | 120.13454 | 3920 ft | 201 kts | 93° |
| 2026-04-30 14:22 | 30.11651 | 120.15060 | 3898 ft | 200 kts | 93° |
| 2026-04-30 14:22 | 30.12745 | 120.17711 | 3910 ft | 192 kts | 27° |
| 2026-04-30 14:22 | 30.13973 | 120.18298 | 3888 ft | 191 kts | 23° |
| 2026-04-30 14:23 | 30.15322 | 120.20894 | 3779 ft | 198 kts | 67° |
| 2026-04-30 14:23 | 30.16377 | 120.23812 | 3287 ft | 190 kts | 63° |
| 2026-04-30 14:24 | 30.17516 | 120.26438 | 2782 ft | 177 kts | 62° |
| 2026-04-30 14:24 | 30.18065 | 120.27686 | 2540 ft | 171 kts | 62° |
| 2026-04-30 14:25 | 30.19045 | 120.29917 | 2126 ft | 161 kts | 61° |
| 2026-04-30 14:25 | 30.20066 | 120.32244 | 1699 ft | 162 kts | 62° |
| 2026-04-30 14:26 | 30.21069 | 120.34532 | 1262 ft | 158 kts | 62° |
| 2026-04-30 14:26 | 30.21566 | 120.35665 | 1051 ft | 157 kts | 62° |
| 2026-04-30 14:26 | 30.22566 | 120.37923 | 618 ft | 157 kts | 62° |
| 2026-04-30 14:27 | 30.23063 | 120.39038 | 410 ft | 156 kts | 63° |
| 2026-04-30 14:27 | 30.23541 | 120.40158 | 221 ft | 154 kts | 63° |
| 2026-04-30 14:27 | 30.24011 | 120.41265 | 37 ft | 150 kts | 62° |
| 2026-04-30 14:28 | 30.24630 | 120.42657 | 29 ft | 35 kts | 63° |
| 2026-04-30 14:28 | 30.24662 | 120.42729 | 28 ft | 0 kts | 64° |
| 2026-04-30 14:28 | 30.24679 | 120.42772 | 28 ft | 12 kts | 66° |
| 2026-04-30 14:28 | 30.24711 | 120.42889 | 30 ft | 16 kts | 78° |
| 2026-04-30 14:29 | 30.24722 | 120.43059 | 32 ft | 0 kts | 90° |
| 2026-04-30 14:31 | 30.24723 | 120.43138 | 31 ft | 10 kts | 90° |
| 2026-04-30 14:31 | 30.24722 | 120.43284 | 31 ft | 5 kts | 90° |
| 2026-04-30 14:31 | 30.24722 | 120.43288 | 31 ft | 0 kts | 90° |
| 2026-04-30 14:35 | 30.24722 | 120.43290 | 31 ft | 2 kts | 90° |
| 2026-04-30 14:35 | 30.24724 | 120.43315 | 31 ft | 5 kts | 70° |
| 2026-04-30 14:35 | 30.24746 | 120.43362 | 31 ft | 8 kts | 58° |
| 2026-04-30 14:36 | 30.24745 | 120.43432 | 31 ft | 10 kts | 125° |
| 2026-04-30 14:36 | 30.24679 | 120.43478 | 31 ft | 13 kts | 154° |
| 2026-04-30 14:36 | 30.24592 | 120.43527 | 30 ft | 15 kts | 153° |
| 2026-04-30 14:36 | 30.24492 | 120.43587 | 30 ft | 17 kts | 153° |
| 2026-04-30 14:37 | 30.24397 | 120.43640 | 31 ft | 7 kts | 154° |
| 2026-04-30 14:37 | 30.24396 | 120.43641 | 31 ft | 0 kts | 154° |
| 2026-04-30 14:37 | 30.24382 | 120.43649 | 31 ft | 4 kts | 153° |
| 2026-04-30 14:38 | 30.24341 | 120.43667 | 31 ft | 9 kts | 163° |
| 2026-04-30 14:38 | 30.24266 | 120.43705 | 31 ft | 14 kts | 155° |
| 2026-04-30 14:38 | 30.24177 | 120.43756 | 31 ft | 14 kts | 153° |
| 2026-04-30 14:38 | 30.24093 | 120.43805 | 31 ft | 13 kts | 153° |
| 2026-04-30 14:39 | 30.24011 | 120.43821 | 31 ft | 13 kts | 214° |
| 2026-04-30 14:39 | 30.23967 | 120.43735 | 31 ft | 12 kts | 243° |
| 2026-04-30 14:39 | 30.23935 | 120.43646 | 31 ft | 12 kts | 274° |
| 2026-04-30 14:40 | 30.24014 | 120.43574 | 31 ft | 4 kts | 333° |
| 2026-04-30 14:40 | 30.24030 | 120.43553 | 31 ft | 4 kts | 270° |
| 2026-04-30 14:40 | 30.24015 | 120.43528 | 31 ft | 4 kts | 242° |
| 2026-04-30 14:40 | 30.24013 | 120.43524 | 31 ft | 0 kts | 243° |
| 2026-04-30 14:41 | 30.24011 | 120.43519 | 31 ft | 2 kts | 242° |
| 2026-04-30 14:41 | 30.24007 | 120.43509 | 31 ft | 0 kts | 244° |